createdAt,value
2023-03-30T00:01:19.802Z,91.10
2023-03-30T00:03:48.273Z,91.80
2023-03-30T00:06:23.606Z,92.60
2023-03-30T00:08:53.749Z,94.50
2023-03-30T00:11:23.547Z,95.60
2023-03-30T00:13:50.972Z,97.00
2023-03-30T00:16:18.952Z,97.00
2023-03-30T00:18:45.988Z,98.10
2023-03-30T00:21:13.141Z,98.60
2023-03-30T00:23:40.513Z,99.10
2023-03-30T00:26:07.909Z,99.50
2023-03-30T00:28:35.057Z,99.90
2023-03-30T00:31:02.621Z,99.90
2023-03-30T00:33:44.113Z,99.80
2023-03-30T00:36:14.089Z,99.90
2023-03-30T00:38:41.324Z,99.90
2023-03-30T00:41:09.577Z,99.90
2023-03-30T00:43:56.305Z,99.90
2023-03-30T00:46:24.450Z,99.90
2023-03-30T00:48:52.124Z,99.90
2023-03-30T00:51:19.823Z,99.90
2023-03-30T00:53:50.462Z,99.90
2023-03-30T00:56:23.254Z,99.90
2023-03-30T00:58:50.942Z,99.90
2023-03-30T01:01:25.892Z,99.90
2023-03-30T01:03:53.973Z,99.90
2023-03-30T01:06:29.968Z,99.90
2023-03-30T01:09:00.869Z,99.90
2023-03-30T01:11:28.205Z,99.90
2023-03-30T01:14:03.812Z,99.90
2023-03-30T01:16:52.558Z,99.90
2023-03-30T01:19:53.369Z,99.90
2023-03-30T01:22:35.250Z,99.90
2023-03-30T01:25:20.955Z,99.90
2023-03-30T01:28:09.184Z,99.90
2023-03-30T01:31:13.332Z,99.90
2023-03-30T01:34:12.509Z,99.90
2023-03-30T01:36:51.882Z,99.90
2023-03-30T01:39:45.833Z,99.90
2023-03-30T01:42:36.407Z,99.90
2023-03-30T01:45:11.882Z,99.90
2023-03-30T01:47:47.494Z,99.90
2023-03-30T01:50:32.882Z,99.90
2023-03-30T01:53:08.859Z,99.90
2023-03-30T01:55:41.908Z,99.90
2023-03-30T01:58:19.515Z,99.90
2023-03-30T02:00:51.409Z,99.90
2023-03-30T02:03:28.742Z,99.90
2023-03-30T02:06:04.165Z,99.90
2023-03-30T02:08:35.276Z,99.90
2023-03-30T02:11:02.793Z,99.90
2023-03-30T02:13:33.050Z,99.90
2023-03-30T02:16:12.010Z,99.90
2023-03-30T02:18:39.183Z,99.90
2023-03-30T02:21:06.548Z,99.90
2023-03-30T02:23:39.719Z,99.90
2023-03-30T02:26:08.746Z,99.90
2023-03-30T02:28:36.288Z,99.90
2023-03-30T02:31:05.477Z,99.90
2023-03-30T02:34:09.029Z,99.90
2023-03-30T02:36:36.119Z,99.90
2023-03-30T02:39:15.164Z,99.90
2023-03-30T02:42:02.658Z,99.90
2023-03-30T02:44:45.466Z,99.90
2023-03-30T02:47:17.839Z,99.90
2023-03-30T02:49:57.417Z,99.90
2023-03-30T02:52:43.234Z,99.90
2023-03-30T02:55:46.176Z,99.90
2023-03-30T02:58:41.160Z,99.90
2023-03-30T03:01:15.328Z,99.90
2023-03-30T03:03:46.248Z,99.90
2023-03-30T03:06:15.094Z,99.90
2023-03-30T03:08:47.919Z,99.90
2023-03-30T03:11:15.179Z,99.90
2023-03-30T03:13:42.826Z,99.90
2023-03-30T03:16:12.319Z,99.90
2023-03-30T03:18:40.508Z,99.90
2023-03-30T03:21:14.111Z,99.90
2023-03-30T03:23:41.692Z,99.90
2023-03-30T03:26:11.756Z,99.90
2023-03-30T03:28:38.774Z,99.90
2023-03-30T03:31:06.780Z,99.90
2023-03-30T03:33:34.273Z,99.90
2023-03-30T03:36:01.864Z,99.90
2023-03-30T03:38:29.760Z,99.90
2023-03-30T03:40:58.899Z,99.90
2023-03-30T03:43:26.232Z,99.90
2023-03-30T03:45:53.455Z,99.90
2023-03-30T03:48:23.492Z,99.90
2023-03-30T03:50:52.791Z,99.90
2023-03-30T03:53:20.916Z,99.90
2023-03-30T03:55:48.097Z,99.90
2023-03-30T03:58:16.200Z,99.90
2023-03-30T04:00:43.425Z,99.90
2023-03-30T04:03:12.502Z,99.90
2023-03-30T04:05:40.976Z,99.90
2023-03-30T04:08:12.056Z,99.90
2023-03-30T04:10:40.992Z,99.90
2023-03-30T04:13:08.062Z,99.90
2023-03-30T04:15:35.510Z,99.90
2023-03-30T04:18:03.055Z,99.90
2023-03-30T04:20:30.673Z,99.90
2023-03-30T04:22:57.799Z,99.90
2023-03-30T04:25:26.080Z,99.90
2023-03-30T04:27:53.865Z,99.90
2023-03-30T04:30:22.622Z,99.90
2023-03-30T04:33:03.365Z,99.90
2023-03-30T04:35:34.594Z,99.90
2023-03-30T04:38:02.620Z,99.90
2023-03-30T04:40:30.047Z,99.90
2023-03-30T04:43:02.439Z,99.90
2023-03-30T04:45:31.199Z,99.90
2023-03-30T04:47:58.528Z,99.90
2023-03-30T04:50:26.290Z,99.90
2023-03-30T04:52:53.432Z,99.90
2023-03-30T04:55:20.705Z,99.90
2023-03-30T04:57:47.901Z,99.90
2023-03-30T05:00:15.739Z,99.90
2023-03-30T05:02:43.021Z,99.90
2023-03-30T05:05:10.263Z,99.90
2023-03-30T05:07:37.479Z,99.90
2023-03-30T05:10:04.939Z,99.90
2023-03-30T05:12:32.195Z,99.90
2023-03-30T05:14:59.454Z,99.90
2023-03-30T05:17:26.826Z,99.90
2023-03-30T05:19:54.804Z,99.90
2023-03-30T05:22:22.110Z,99.90
2023-03-30T05:24:49.266Z,99.90
2023-03-30T05:27:16.263Z,99.90
2023-03-30T05:29:43.313Z,97.40
2023-03-30T05:32:10.483Z,97.90
2023-03-30T05:34:37.522Z,97.60
2023-03-30T05:37:04.608Z,95.40
2023-03-30T05:39:31.681Z,93.90
2023-03-30T05:41:58.874Z,91.90
2023-03-30T05:44:26.134Z,91.10
2023-03-30T05:46:53.698Z,90.40
2023-03-30T05:49:21.126Z,90.10
2023-03-30T05:51:48.275Z,87.20
2023-03-30T05:54:15.625Z,85.40
2023-03-30T05:56:42.823Z,83.50
2023-03-30T05:59:10.599Z,82.70
2023-03-30T06:01:38.563Z,83.40
2023-03-30T06:04:06.205Z,82.10
2023-03-30T06:06:33.523Z,81.40
2023-03-30T06:09:01.059Z,80.80
2023-03-30T06:11:28.536Z,81.20
2023-03-30T06:13:55.595Z,80.50
2023-03-30T06:16:22.807Z,79.30
2023-03-30T06:18:50.059Z,78.40
2023-03-30T06:21:17.447Z,78.30
2023-03-30T06:23:44.694Z,76.50
2023-03-30T06:26:11.923Z,76.60
2023-03-30T06:28:39.092Z,75.90
2023-03-30T06:31:12.427Z,74.20
2023-03-30T06:33:41.680Z,73.00
2023-03-30T06:36:13.970Z,73.00
2023-03-30T06:38:43.745Z,73.40
2023-03-30T06:41:12.875Z,73.70
2023-03-30T06:43:40.386Z,73.80
2023-03-30T06:46:08.479Z,73.50
2023-03-30T06:48:35.884Z,73.40
2023-03-30T06:51:04.635Z,73.30
2023-03-30T06:53:31.862Z,72.50
2023-03-30T06:55:59.412Z,71.30
2023-03-30T06:58:27.822Z,70.40
2023-03-30T07:00:55.898Z,68.00
2023-03-30T07:03:23.221Z,67.60
2023-03-30T07:05:52.038Z,68.50
2023-03-30T07:08:19.897Z,68.70
2023-03-30T07:10:48.496Z,68.30
2023-03-30T07:13:19.327Z,67.50
2023-03-30T07:15:46.914Z,67.10
2023-03-30T07:18:15.066Z,67.30
2023-03-30T07:20:42.725Z,65.90
2023-03-30T07:23:11.493Z,66.00
2023-03-30T07:25:39.366Z,65.60
2023-03-30T07:28:06.836Z,64.30
2023-03-30T07:30:35.057Z,63.70
2023-03-30T07:33:02.894Z,61.20
2023-03-30T07:35:30.211Z,60.90
2023-03-30T07:38:03.400Z,60.70
2023-03-30T07:40:31.395Z,61.20
2023-03-30T07:42:59.099Z,59.40
2023-03-30T07:45:26.429Z,58.70
2023-03-30T07:47:53.602Z,57.90
2023-03-30T07:50:21.754Z,56.70
2023-03-30T07:52:53.861Z,56.60
2023-03-30T07:55:21.386Z,56.10
2023-03-30T07:57:48.448Z,56.30
2023-03-30T08:00:16.236Z,55.80
2023-03-30T08:02:44.991Z,55.40
2023-03-30T08:05:12.164Z,55.00
2023-03-30T08:07:39.494Z,55.30
2023-03-30T08:10:08.340Z,54.40
2023-03-30T08:12:35.665Z,54.60
2023-03-30T08:15:03.623Z,54.30
2023-03-30T08:17:31.205Z,53.70
2023-03-30T08:19:58.310Z,53.50
2023-03-30T08:22:25.578Z,53.80
2023-03-30T08:24:52.699Z,53.40
2023-03-30T08:27:19.856Z,54.10
2023-03-30T08:29:46.980Z,53.90
2023-03-30T08:32:14.155Z,54.10
2023-03-30T08:34:41.327Z,53.90
2023-03-30T08:37:08.443Z,53.80
2023-03-30T08:39:35.451Z,53.90
2023-03-30T08:42:11.963Z,54.00
2023-03-30T08:44:44.948Z,52.90
2023-03-30T08:47:16.785Z,52.60
2023-03-30T08:49:51.738Z,52.90
2023-03-30T08:52:24.300Z,53.30
2023-03-30T08:54:52.527Z,52.90
2023-03-30T08:57:28.240Z,53.10
2023-03-30T09:00:21.275Z,53.40
2023-03-30T09:02:53.477Z,52.40
2023-03-30T09:05:30.600Z,53.30
2023-03-30T09:08:17.668Z,53.20
2023-03-30T09:10:51.955Z,54.00
2023-03-30T09:13:22.992Z,51.90
2023-03-30T09:15:59.484Z,52.50
2023-03-30T09:18:35.092Z,52.40
2023-03-30T09:21:06.412Z,52.50
2023-03-30T09:23:34.614Z,52.60
2023-03-30T09:26:20.549Z,52.50
2023-03-30T09:28:53.824Z,51.80
2023-03-30T09:31:24.545Z,51.70
2023-03-30T09:34:08.512Z,51.70
2023-03-30T09:36:56.245Z,52.60
2023-03-30T09:39:27.407Z,54.90
2023-03-30T09:42:34.874Z,52.10
2023-03-30T09:45:05.789Z,51.90
2023-03-30T09:47:39.160Z,51.90
2023-03-30T09:50:09.223Z,51.50
2023-03-30T09:52:40.683Z,52.20
2023-03-30T09:55:38.216Z,51.90
2023-03-30T09:58:26.815Z,51.30
2023-03-30T10:01:14.828Z,51.60
2023-03-30T10:03:44.185Z,51.10
2023-03-30T10:06:17.271Z,52.30
2023-03-30T10:08:57.106Z,51.80
2023-03-30T10:11:38.129Z,52.10
2023-03-30T10:14:07.518Z,51.00
2023-03-30T10:16:35.353Z,50.40
2023-03-30T10:19:16.972Z,50.50
2023-03-30T10:21:47.058Z,50.60
2023-03-30T10:24:25.780Z,51.40
2023-03-30T10:26:58.950Z,51.60
2023-03-30T10:29:30.168Z,51.20
2023-03-30T10:32:08.704Z,52.40
2023-03-30T10:34:42.730Z,52.40
2023-03-30T10:37:24.828Z,51.90
2023-03-30T10:39:52.815Z,51.90
2023-03-30T10:42:25.330Z,51.30
2023-03-30T10:44:55.696Z,51.40
2023-03-30T10:47:45.741Z,53.20
2023-03-30T10:50:21.798Z,51.40
2023-03-30T10:53:19.359Z,51.40
2023-03-30T10:55:49.192Z,51.90
2023-03-30T10:58:37.311Z,51.70
2023-03-30T11:01:42.884Z,52.00
2023-03-30T11:04:57.627Z,50.60
2023-03-30T11:07:38.883Z,51.90
2023-03-30T11:10:29.498Z,51.80
2023-03-30T11:12:59.376Z,50.80
2023-03-30T11:15:31.997Z,50.20
2023-03-30T11:18:23.408Z,49.90
2023-03-30T11:21:13.124Z,50.80
2023-03-30T11:23:53.208Z,51.00
2023-03-30T11:26:43.245Z,50.90
2023-03-30T11:29:15.977Z,50.40
2023-03-30T11:31:54.222Z,49.50
2023-03-30T11:34:38.833Z,50.20
2023-03-30T11:37:20.898Z,51.40
2023-03-30T11:40:20.430Z,50.90
2023-03-30T11:42:48.896Z,51.80
2023-03-30T11:45:46.605Z,50.60
2023-03-30T11:48:38.553Z,50.40
2023-03-30T11:51:20.633Z,50.40
2023-03-30T11:54:25.266Z,51.80
2023-03-30T11:57:24.853Z,50.00
2023-03-30T12:00:09.762Z,50.10
2023-03-30T12:03:05.645Z,49.50
2023-03-30T12:05:38.778Z,49.60
2023-03-30T12:08:36.712Z,49.50
2023-03-30T12:11:30.352Z,50.40
2023-03-30T12:13:58.364Z,49.80
2023-03-30T12:16:36.806Z,49.90
2023-03-30T12:19:09.947Z,50.00
2023-03-30T12:21:59.789Z,48.50
2023-03-30T12:24:42.338Z,49.70
2023-03-30T12:27:11.937Z,49.00
2023-03-30T12:32:22.858Z,48.60
2023-03-30T12:34:50.034Z,48.70
2023-03-30T12:37:27.048Z,48.40
2023-03-30T12:39:58.308Z,48.10
2023-03-30T12:42:28.074Z,48.00
2023-03-30T12:45:23.567Z,48.30
2023-03-30T12:48:14.557Z,48.70
2023-03-30T12:50:50.227Z,49.10
2023-03-30T12:53:26.152Z,47.90
2023-03-30T12:56:09.265Z,48.30
2023-03-30T12:58:45.333Z,47.60
2023-03-30T13:01:28.108Z,48.00
2023-03-30T13:04:16.285Z,48.30
2023-03-30T13:07:23.279Z,47.90
2023-03-30T13:10:04.031Z,48.00
2023-03-30T13:12:32.782Z,48.80
2023-03-30T13:15:31.557Z,48.80
2023-03-30T13:18:02.323Z,48.00
2023-03-30T13:20:55.896Z,47.50
2023-03-30T13:23:23.054Z,47.60
2023-03-30T13:26:28.195Z,47.10
2023-03-30T13:29:11.743Z,48.20
2023-03-30T13:31:59.608Z,47.20
2023-03-30T13:34:46.707Z,47.70
2023-03-30T13:37:39.550Z,46.30
2023-03-30T13:40:35.536Z,46.10
2023-03-30T13:43:15.300Z,46.90
2023-03-30T13:45:53.807Z,47.20
2023-03-30T13:48:38.560Z,46.60
2023-03-30T13:51:06.305Z,46.40
2023-03-30T13:53:42.567Z,46.30
2023-03-30T13:56:11.427Z,46.40
2023-03-30T13:58:41.229Z,46.20
2023-03-30T14:01:13.908Z,46.70
2023-03-30T14:03:43.837Z,46.80
2023-03-30T14:06:17.816Z,46.10
2023-03-30T14:08:48.167Z,46.30
2023-03-30T14:11:23.160Z,46.10
2023-03-30T14:13:52.607Z,46.30
2023-03-30T14:16:26.905Z,46.20
2023-03-30T14:19:08.366Z,46.20
2023-03-30T14:21:37.937Z,45.60
2023-03-30T14:24:05.543Z,45.90
2023-03-30T14:26:32.786Z,46.30
2023-03-30T14:29:06.314Z,46.20
2023-03-30T14:31:42.159Z,46.20
2023-03-30T14:34:31.526Z,47.10
2023-03-30T14:37:05.433Z,47.20
2023-03-30T14:39:39.280Z,47.90
2023-03-30T14:42:36.142Z,48.70
2023-03-30T14:45:03.628Z,48.80
2023-03-30T14:47:30.807Z,49.30
2023-03-30T14:50:04.881Z,48.60
2023-03-30T14:52:38.098Z,49.20
2023-03-30T14:55:09.918Z,48.70
2023-03-30T14:57:42.054Z,49.10
2023-03-30T15:00:18.608Z,49.30
2023-03-30T15:02:50.777Z,49.60
2023-03-30T15:05:20.239Z,49.90
2023-03-30T15:07:50.143Z,49.60
2023-03-30T15:10:35.582Z,50.40
2023-03-30T15:13:04.580Z,50.30
2023-03-30T15:15:32.962Z,49.70
2023-03-30T15:18:00.870Z,50.60
2023-03-30T15:20:31.545Z,50.00
2023-03-30T15:23:00.168Z,50.50
2023-03-30T15:25:35.492Z,50.60
2023-03-30T15:28:09.553Z,51.20
2023-03-30T15:30:40.448Z,51.60
2023-03-30T15:33:36.172Z,52.00
2023-03-30T15:36:18.400Z,50.20
2023-03-30T15:39:01.199Z,50.80
2023-03-30T15:41:47.671Z,50.70
2023-03-30T15:44:22.139Z,51.30
2023-03-30T15:46:51.267Z,52.00
2023-03-30T15:49:20.918Z,51.00
2023-03-30T15:51:53.018Z,51.40
2023-03-30T15:54:39.633Z,51.70
2023-03-30T15:57:21.262Z,52.10
2023-03-30T16:00:09.620Z,52.30
2023-03-30T16:02:41.688Z,52.40
2023-03-30T16:05:20.989Z,52.70
2023-03-30T16:07:48.824Z,52.90
2023-03-30T16:10:27.637Z,53.00
2023-03-30T16:12:56.765Z,53.30
2023-03-30T16:15:26.732Z,53.20
2023-03-30T16:17:54.034Z,53.30
2023-03-30T16:20:23.965Z,53.40
2023-03-30T16:22:51.534Z,53.00
2023-03-30T16:25:23.282Z,52.90
2023-03-30T16:27:55.830Z,53.20
2023-03-30T16:30:38.888Z,52.20
2023-03-30T16:33:06.386Z,52.10
2023-03-30T16:35:33.461Z,52.60
2023-03-30T16:38:00.762Z,52.70
2023-03-30T16:40:42.297Z,52.90
2023-03-30T16:43:10.548Z,53.20
2023-03-30T16:45:37.907Z,53.90
2023-03-30T16:48:05.518Z,54.60
2023-03-30T16:50:39.833Z,55.00
2023-03-30T16:53:09.048Z,56.00
2023-03-30T16:55:37.817Z,55.30
2023-03-30T16:58:07.151Z,56.20
2023-03-30T17:01:03.804Z,56.30
2023-03-30T17:03:32.095Z,55.90
2023-03-30T17:05:59.422Z,56.50
2023-03-30T17:08:29.812Z,56.50
2023-03-30T17:11:05.223Z,56.70
2023-03-30T17:13:33.128Z,57.10
2023-03-30T17:16:03.101Z,57.90
2023-03-30T17:18:31.961Z,57.90
2023-03-30T17:21:01.190Z,57.60
2023-03-30T17:23:32.204Z,57.40
2023-03-30T17:26:01.126Z,57.70
2023-03-30T17:28:29.473Z,57.90
2023-03-30T17:30:59.332Z,58.00
2023-03-30T17:33:26.666Z,58.70
2023-03-30T17:35:57.562Z,58.70
2023-03-30T17:38:25.477Z,58.70
2023-03-30T17:40:52.779Z,59.40
2023-03-30T17:43:19.923Z,59.40
2023-03-30T17:45:47.169Z,59.50
2023-03-30T17:48:17.582Z,60.40
2023-03-30T17:50:47.333Z,59.30
2023-03-30T17:53:17.157Z,59.90
2023-03-30T17:55:46.126Z,59.60
2023-03-30T17:58:19.392Z,59.90
2023-03-30T18:00:47.681Z,59.80
2023-03-30T18:03:16.355Z,59.40
2023-03-30T18:05:47.838Z,60.60
2023-03-30T18:08:17.910Z,59.40
2023-03-30T18:10:50.000Z,60.00
2023-03-30T18:13:17.511Z,59.70
2023-03-30T18:15:48.910Z,59.70
2023-03-30T18:18:23.042Z,59.80
2023-03-30T18:20:55.210Z,60.10
2023-03-30T18:23:22.862Z,59.50
2023-03-30T18:25:50.543Z,60.30
2023-03-30T18:28:19.444Z,61.10
2023-03-30T18:30:46.742Z,60.40
2023-03-30T18:33:16.261Z,60.10
2023-03-30T18:35:49.613Z,61.20
2023-03-30T18:38:20.156Z,60.60
2023-03-30T18:40:58.458Z,61.10
2023-03-30T18:43:26.780Z,60.90
2023-03-30T18:46:00.775Z,61.30
2023-03-30T18:48:29.192Z,61.10
2023-03-30T18:50:57.332Z,62.20
2023-03-30T18:53:29.019Z,62.00
2023-03-30T18:55:58.812Z,62.00
2023-03-30T18:58:28.321Z,62.00
2023-03-30T19:00:55.932Z,63.30
2023-03-30T19:03:25.216Z,62.40
2023-03-30T19:05:52.838Z,62.20
2023-03-30T19:08:25.009Z,63.40
2023-03-30T19:10:57.777Z,62.60
2023-03-30T19:13:26.652Z,63.40
2023-03-30T19:15:54.735Z,63.30
2023-03-30T19:18:22.260Z,63.70
2023-03-30T19:20:51.485Z,63.90
2023-03-30T19:23:19.639Z,64.20
2023-03-30T19:25:46.887Z,63.80
2023-03-30T19:28:15.357Z,63.90
2023-03-30T19:30:43.038Z,63.10
2023-03-30T19:33:15.347Z,63.60
2023-03-30T19:35:44.685Z,63.90
2023-03-30T19:38:12.305Z,63.90
2023-03-30T19:40:40.180Z,63.60
2023-03-30T19:43:08.555Z,63.70
2023-03-30T19:45:35.766Z,64.20
2023-03-30T19:48:02.998Z,64.70
2023-03-30T19:50:30.628Z,64.60
2023-03-30T19:52:58.178Z,64.70
2023-03-30T19:55:25.814Z,64.40
2023-03-30T19:57:53.049Z,64.30
2023-03-30T20:00:20.892Z,64.50
2023-03-30T20:02:53.181Z,64.90
2023-03-30T20:05:21.902Z,65.60
2023-03-30T20:07:49.834Z,65.40
2023-03-30T20:10:20.589Z,65.40
2023-03-30T20:12:49.622Z,65.70
2023-03-30T20:15:17.483Z,65.70
2023-03-30T20:17:44.658Z,65.70
2023-03-30T20:20:16.236Z,65.70
2023-03-30T20:22:45.475Z,65.80
2023-03-30T20:25:14.234Z,66.00
2023-03-30T20:27:42.081Z,66.80
2023-03-30T20:30:09.931Z,67.10
2023-03-30T20:32:37.315Z,67.10
2023-03-30T20:35:05.632Z,66.70
2023-03-30T20:37:32.744Z,66.60
2023-03-30T20:40:09.861Z,66.50
2023-03-30T20:42:40.129Z,66.60
2023-03-30T20:45:08.630Z,66.70
2023-03-30T20:47:35.799Z,67.10
2023-03-30T20:50:03.684Z,66.80
2023-03-30T20:52:31.221Z,67.00
2023-03-30T20:54:59.869Z,67.00
2023-03-30T20:57:27.464Z,67.10
2023-03-30T20:59:54.716Z,66.90
2023-03-30T21:02:21.963Z,67.10
2023-03-30T21:04:49.792Z,66.90
2023-03-30T21:07:18.341Z,66.80
2023-03-30T21:09:46.069Z,66.30
2023-03-30T21:12:13.281Z,65.90
2023-03-30T21:14:44.906Z,65.90
2023-03-30T21:17:12.707Z,65.90
2023-03-30T21:19:39.817Z,66.10
2023-03-30T21:22:07.657Z,65.70
2023-03-30T21:24:35.006Z,65.70
2023-03-30T21:27:02.213Z,65.50
2023-03-30T21:29:29.229Z,65.70
2023-03-30T21:31:57.828Z,65.70
2023-03-30T21:34:24.895Z,65.60
2023-03-30T21:36:52.254Z,65.20
2023-03-30T21:39:19.444Z,64.90
2023-03-30T21:41:46.533Z,65.00
2023-03-30T21:44:13.694Z,64.70
2023-03-30T21:46:40.915Z,64.30
2023-03-30T21:49:08.145Z,64.40
2023-03-30T21:51:35.386Z,63.70
2023-03-30T21:54:02.567Z,63.10
2023-03-30T21:56:31.404Z,62.80
2023-03-30T21:58:59.198Z,63.00
2023-03-30T22:01:26.789Z,62.90
2023-03-30T22:03:56.397Z,62.40
2023-03-30T22:06:24.182Z,61.70
2023-03-30T22:08:51.454Z,62.40
2023-03-30T22:11:21.559Z,62.90
2023-03-30T22:13:49.102Z,62.20
2023-03-30T22:16:24.586Z,62.30
2023-03-30T22:18:52.592Z,62.40
2023-03-30T22:21:22.522Z,62.30
2023-03-30T22:23:49.750Z,62.80
2023-03-30T22:26:17.309Z,62.80
2023-03-30T22:28:44.838Z,62.70
2023-03-30T22:31:14.033Z,62.10
2023-03-30T22:33:41.614Z,61.20
2023-03-30T22:36:19.616Z,61.20
2023-03-30T22:38:47.821Z,60.70
2023-03-30T22:41:15.516Z,60.60
2023-03-30T22:43:42.616Z,60.30
2023-03-30T22:46:10.091Z,60.20
2023-03-30T22:48:37.892Z,60.30
2023-03-30T22:51:08.455Z,59.90
2023-03-30T22:53:36.425Z,59.90
2023-03-30T22:56:03.881Z,60.10
2023-03-30T22:58:31.213Z,60.40
2023-03-30T23:01:02.452Z,60.40
2023-03-30T23:03:29.790Z,59.70
2023-03-30T23:06:01.176Z,59.70
2023-03-30T23:08:32.411Z,59.70
2023-03-30T23:11:05.096Z,60.00
2023-03-30T23:13:38.193Z,60.30
2023-03-30T23:16:06.673Z,60.20
2023-03-30T23:18:35.075Z,60.10
2023-03-30T23:21:06.917Z,60.20
2023-03-30T23:23:35.988Z,60.00
2023-03-30T23:26:09.388Z,59.80
2023-03-30T23:28:42.018Z,59.80
2023-03-30T23:31:12.500Z,59.80
2023-03-30T23:33:40.580Z,59.80
2023-03-30T23:36:09.241Z,59.60
2023-03-30T23:38:37.660Z,59.50
2023-03-30T23:41:06.136Z,59.50
2023-03-30T23:43:33.211Z,59.30
2023-03-30T23:46:00.344Z,59.60
2023-03-30T23:48:27.410Z,60.00
2023-03-30T23:50:56.409Z,59.70
2023-03-30T23:53:25.135Z,59.70
2023-03-30T23:55:52.855Z,59.80
2023-03-30T23:58:19.995Z,60.40
